Latest Weather Observations for Point Stuart

IDD60901

Issued at 2:41 pm CST Friday 27 March 2015 (issued every 10 minutes, with the page automatically refreshed every 10 minutes)

About weather observations | Map of Darwin area stations | Latest observations for Darwin area | Other Formats
Station Details ID: 014254 Name: POINT STUART Lat: -12.24 Lon: 131.88 Height: 1.0 m
Data from the previous 72 hours. | See also: Recent months for locations in Northern Territory
Date/Time
CST
Tmp

°C
App
Tmp
°C
Dew
Point
°C
Rel
Hum
%
Delta-T

°C
Wind Press
QNH
hPa
Press
MSL
hPa
Rain
since
9 am
mm
Dir
 
Spd
km/h
Gust
km/h
Spd
kts
Gust
kts
27/02:30pm 28.8 33.7 25.2 81 2.5 NW 9 13 5 7 1011.3 - 0.0
27/02:00pm 29.1 35.9 25.5 81 2.5 CALM 0 0 0 0 1011.9 - 0.0
27/01:30pm 29.0 36.1 26.0 84 2.1 CALM 0 0 0 0 1012.6 - 0.0
27/01:00pm 28.1 33.6 25.3 85 2.0 NW 6 11 3 6 1013.2 - 0.0
27/12:30pm 27.5 32.4 25.9 91 1.1 NW 11 17 6 9 1013.9 - 0.0
27/12:00pm 26.7 30.6 25.5 93 0.8 WNW 15 19 8 10 1014.4 1014.4 0.0
27/11:30am 26.1 28.9 25.8 98 0.2 W 22 28 12 15 1014.7 - 0.0
27/11:00am 26.1 27.7 22.8 82 2.2 W 19 35 10 19 1015.2 - 0.0
27/10:30am 29.6 34.0 26.8 85 2.0 E 17 24 9 13 1014.9 - 0.0
27/10:00am 28.2 31.8 26.2 89 1.4 E 19 26 10 14 1015.0 - 0.0
27/09:30am 27.7 30.6 25.9 90 1.3 E 22 28 12 15 1015.2 - 0.0
27/09:00am 27.4 31.0 26.2 93 0.9 E 19 26 10 14 1015.3 1015.3 48.0
27/08:30am 26.6 30.4 25.9 96 0.5 E 17 24 9 13 1015.2 - 48.0
27/08:00am 26.3 31.0 26.1 99 0.1 ESE 13 17 7 9 1014.8 - 48.0
27/07:30am 25.8 30.3 25.8 100 0.0 ESE 13 15 7 8 1014.3 - 48.0
27/07:00am 25.3 30.6 25.3 100 0.0 ESE 7 13 4 7 1013.6 - 48.0
27/06:30am 25.3 30.2 25.3 100 0.0 ESE 9 15 5 8 1013.1 - 48.0
27/06:00am 25.8 31.4 25.8 100 0.0 ESE 7 11 4 6 1012.7 1012.7 48.0
27/05:30am 26.5 30.9 26.2 98 0.2 ENE 15 22 8 12 1012.6 - 48.0
27/05:00am 26.5 30.6 26.3 99 0.1 ENE 17 24 9 13 1012.3 - 48.0
27/04:30am 26.3 30.4 26.3 100 0.0 ENE 17 24 9 13 1012.3 - 48.0
27/04:00am 26.2 29.8 26.2 100 0.0 ENE 19 28 10 15 1012.4 - 48.0
27/03:30am 26.2 30.2 26.2 100 0.0 ENE 17 24 9 13 1012.5 - 47.8
27/03:00am 26.3 30.7 26.3 100 0.0 ENE 15 20 8 11 1012.9 1012.9 46.6
27/02:30am 26.2 29.6 26.2 100 0.0 ENE 20 30 11 16 1013.0 - 46.2
27/02:00am 26.0 29.9 26.0 100 0.0 E 17 22 9 12 1013.5 - 43.2
27/01:30am 24.8 27.5 24.8 100 0.0 ENE 19 44 10 24 1013.7 - 32.2
27/01:00am 26.4 30.2 26.4 100 0.0 E 19 26 10 14 1013.9 - 8.4
27/12:30am 26.9 32.9 26.9 100 0.0 NE 9 24 5 13 1013.6 - 2.2
27/12:00am 27.4 30.3 26.5 95 0.6 E 24 33 13 18 1013.8 1013.8 1.6
 
Date/Time
CST
Tmp

°C
App
Tmp
°C
Dew
Point
°C
Rel
Hum
%
Delta-T

°C
Wind Press
QNH
hPa
Press
MSL
hPa
Rain
since
9 am
mm
Dir
 
Spd
km/h
Gust
km/h
Spd
kts
Gust
kts
26/11:30pm 27.6 30.5 26.0 91 1.1 ENE 22 32 12 17 1013.8 - 1.6
26/11:00pm 26.9 29.6 26.2 96 0.5 NE 24 35 13 19 1013.7 - 1.6
26/10:00pm 27.0 30.2 26.5 97 0.4 ENE 22 32 12 17 1013.9 - 0.8
26/09:30pm 28.2 31.5 26.0 88 1.6 NE 20 30 11 16 1013.6 - 0.0
26/09:00pm 28.3 32.0 26.3 89 1.4 NNE 19 30 10 16 1013.2 1013.2 0.0
26/08:30pm 28.2 31.5 26.0 88 1.6 NE 20 30 11 16 1012.9 - 0.0
26/08:00pm 27.9 31.6 25.7 88 1.6 NE 17 24 9 13 1012.8 - 0.0
26/07:30pm 28.1 31.8 26.3 90 1.3 NE 19 26 10 14 1012.4 - 0.0
26/07:00pm 27.9 31.2 25.1 85 2.0 NE 17 26 9 14 1012.0 - 0.0
26/06:30pm 28.2 31.8 26.4 90 1.3 NE 20 28 11 15 1011.6 - 0.0
26/06:00pm 28.0 31.2 25.6 87 1.7 NE 19 30 10 16 1011.1 1011.1 0.0
26/05:30pm 28.5 28.7 24.7 80 2.7 NE 32 41 17 22 1010.8 - 0.0
26/05:00pm 29.3 31.6 25.7 81 2.5 NE 24 32 13 17 1010.4 - 0.0
26/04:30pm 29.3 31.5 25.5 80 2.7 NE 24 32 13 17 1010.3 - 0.0
26/04:00pm 29.5 31.6 25.9 81 2.6 ENE 26 37 14 20 1010.4 - 0.0
26/03:30pm 30.3 33.1 25.8 77 3.2 NE 22 39 12 21 1010.3 - 0.0
26/03:00pm 31.2 34.2 25.5 71 4.0 NE 20 30 11 16 1010.3 1010.3 0.0
26/02:30pm 31.1 33.9 25.2 71 4.2 NE 20 26 11 14 1010.5 - 0.0
26/02:00pm 30.9 33.5 25.5 73 3.8 NE 22 30 12 16 1010.9 - 0.0
26/01:30pm 30.6 33.5 25.9 76 3.3 NE 22 32 12 17 1011.2 - 0.0
26/01:00pm 31.0 35.0 26.7 78 3.1 NE 19 28 10 15 1011.6 - 0.0
26/12:30pm 30.3 33.9 26.5 80 2.7 NE 20 30 11 16 1012.1 - 0.0
26/12:00pm 30.1 33.1 26.7 82 2.4 ENE 24 32 13 17 1012.6 1012.6 0.0
26/11:30am 29.3 31.5 24.8 77 3.1 NE 22 32 12 17 1012.9 - 0.0
26/11:00am 29.4 31.0 25.2 78 3.0 ENE 26 35 14 19 1013.1 - 0.0
26/10:30am 29.4 31.5 25.4 79 2.8 ENE 24 33 13 18 1013.3 - 0.0
26/10:00am 28.1 32.6 27.0 94 0.8 E 17 24 9 13 1013.5 - 0.0
26/09:30am 28.2 32.0 26.8 92 1.0 E 20 28 11 15 1013.2 - 0.0
26/09:00am 27.1 31.0 26.0 94 0.8 ENE 17 24 9 13 1012.9 1012.9 0.2
26/08:30am 27.1 31.5 26.2 95 0.6 ENE 15 20 8 11 1012.4 - 0.2
26/08:00am 25.9 30.8 25.9 100 0.0 ESE 11 17 6 9 1012.2 - 0.2
26/07:30am 26.3 31.5 26.3 100 0.0 ENE 11 15 6 8 1011.7 - 0.2
26/07:00am 26.1 31.2 26.1 100 0.0 ENE 11 15 6 8 1011.5 - 0.2
26/06:30am 26.2 31.3 26.2 100 0.0 ENE 11 19 6 10 1011.4 - 0.2
26/06:00am 25.6 31.1 25.6 100 0.0 ENE 7 9 4 5 1011.0 1011.0 0.2
26/05:30am 25.6 29.9 24.9 96 0.5 NE 11 17 6 9 1010.8 - 0.2
26/05:00am 26.3 30.0 25.1 93 0.8 NE 15 20 8 11 1010.5 - 0.2
26/04:30am 26.5 31.5 24.5 89 1.4 N 6 11 3 6 1010.0 - 0.2
26/04:00am 27.0 31.6 24.8 88 1.5 N 9 15 5 8 1009.7 - 0.2
26/03:30am 26.7 31.4 24.9 90 1.3 N 9 13 5 7 1009.7 - 0.2
26/03:00am 27.2 31.7 25.2 89 1.4 NNE 11 19 6 10 1009.9 1009.9 0.2
26/02:30am 27.4 31.1 24.5 84 2.0 N 13 20 7 11 1010.3 - 0.2
26/02:00am 27.4 30.2 23.0 77 3.0 N 13 19 7 10 1010.5 - 0.2
26/01:30am 27.6 31.8 25.4 88 1.5 N 13 24 7 13 1010.4 - 0.2
26/01:00am 26.9 31.8 25.9 94 0.7 NE 11 15 6 8 1010.7 - 0.2
26/12:30am 26.8 31.4 25.4 92 1.0 ENE 11 17 6 9 1011.1 - 0.2
26/12:00am 27.0 31.2 24.1 84 2.0 NNE 9 19 5 10 1011.2 1011.2 0.2
 
Date/Time
CST
Tmp

°C
App
Tmp
°C
Dew
Point
°C
Rel
Hum
%
Delta-T

°C
Wind Press
QNH
hPa
Press
MSL
hPa
Rain
since
9 am
mm
Dir
 
Spd
km/h
Gust
km/h
Spd
kts
Gust
kts
25/11:30pm 27.0 30.8 24.1 84 2.0 NNE 11 15 6 8 1011.4 - 0.2
25/11:00pm 26.8 29.9 23.5 82 2.3 N 13 22 7 12 1011.4 - 0.2
25/10:30pm 27.4 31.4 23.8 81 2.5 N 9 17 5 9 1011.1 - 0.2
25/10:00pm 27.3 31.1 24.0 82 2.3 N 11 17 6 9 1011.2 - 0.2
25/09:30pm 27.3 31.2 25.5 90 1.3 N 15 24 8 13 1010.8 - 0.2
25/09:00pm 26.2 32.5 26.0 99 0.1 WSW 4 11 2 6 1010.7 1010.7 0.2
25/08:30pm 26.1 30.7 25.4 96 0.5 WSW 11 19 6 10 1010.4 - 0.2
25/08:00pm 28.1 31.8 25.1 84 2.1 N 15 26 8 14 1010.1 - 0.2
25/07:30pm 27.6 32.5 25.8 90 1.3 NNW 11 20 6 11 1010.0 - 0.2
25/07:00pm 26.7 28.9 25.5 93 0.8 WNW 24 39 13 21 1009.6 - 0.2
25/06:30pm 28.6 31.8 24.4 78 2.9 N 15 28 8 15 1008.9 - 0.0
25/06:00pm 28.9 32.3 24.7 78 2.9 N 15 24 8 13 1008.4 1008.4 0.0
25/05:30pm 28.3 31.4 24.1 78 2.9 N 15 24 8 13 1008.1 - 0.0
25/05:00pm 28.6 31.8 24.4 78 2.9 NNE 15 24 8 13 1007.9 - 0.0
25/04:30pm 28.9 33.0 24.5 77 3.1 NNE 11 20 6 11 1008.0 - 0.0
25/04:00pm 29.7 32.8 24.1 72 3.9 NNE 15 28 8 15 1007.8 - 0.0
25/03:30pm 29.2 32.9 23.9 73 3.7 N 11 17 6 9 1007.9 - 0.0
25/03:00pm 30.2 34.6 25.0 73 3.7 NNW 11 19 6 10 1007.9 1007.9 0.0
25/02:30pm 30.2 33.8 24.4 71 4.0 NNW 13 20 7 11 1007.9 - 0.0
25/02:00pm 29.7 32.6 23.2 68 4.5 NNW 13 20 7 11 1008.4 - 0.0
25/01:30pm 30.2 33.8 24.4 71 4.0 NNW 13 20 7 11 1008.8 - 0.0
25/01:00pm 29.5 33.8 25.5 79 2.8 NNW 13 20 7 11 1009.3 - 0.0
25/12:30pm 28.9 32.3 24.7 78 2.9 NNW 15 22 8 12 1009.6 - 0.0
25/12:00pm 28.7 32.0 23.8 75 3.4 NNW 13 19 7 10 1009.8 1009.8 0.0
25/11:30am 28.2 31.7 24.2 79 2.8 NNW 13 20 7 11 1010.0 - 0.0
25/11:00am 28.5 33.2 25.5 84 2.1 NNW 11 17 6 9 1010.2 - 0.0
25/10:30am 27.6 32.6 24.8 85 2.0 NNW 7 15 4 8 1010.3 - 0.0
25/10:00am 26.5 31.7 25.1 92 1.0 NNW 7 13 4 7 1010.4 - 0.0
25/09:30am 25.8 30.7 25.8 100 0.0 NW 11 13 6 7 1010.3 - 0.0
25/09:00am 24.7 29.6 24.7 100 0.0 WNW 7 17 4 9 1010.1 1010.1 7.6
25/08:30am 23.6 27.9 23.6 100 0.0 S 7 11 4 6 1009.9 - 7.6
25/08:00am 23.7 27.7 23.7 100 0.0 WSW 9 13 5 7 1009.5 - 7.4
25/07:30am 23.5 27.3 23.5 100 0.0 WSW 9 13 5 7 1009.1 - 7.4
25/07:00am 23.0 26.2 23.0 100 0.0 W 11 13 6 7 1008.7 - 7.4
25/06:30am 22.9 27.4 22.9 100 0.0 WNW 4 7 2 4 1008.3 - 7.4
25/06:00am 22.6 26.5 22.6 100 0.0 WNW 6 7 3 4 1007.9 1007.9 7.4
25/05:30am 22.5 27.5 22.5 100 0.0 CALM 0 4 0 2 1007.6 - 7.4
25/05:00am 22.4 26.0 22.4 100 0.0 WSW 7 11 4 6 1007.3 - 7.4
25/04:30am 22.5 25.8 22.5 100 0.0 W 9 11 5 6 1007.0 - 7.4
25/04:00am 22.7 25.7 22.7 100 0.0 W 11 15 6 8 1007.2 - 7.4
25/03:30am 22.8 24.7 22.8 100 0.0 W 17 22 9 12 1007.4 - 7.4
25/03:00am 22.9 26.4 22.9 100 0.0 WSW 9 13 5 7 1007.6 1007.6 7.4
25/02:30am 23.0 25.8 23.0 100 0.0 WSW 13 19 7 10 1007.6 - 7.4
25/02:00am 23.3 25.9 23.3 100 0.0 WSW 15 19 8 10 1007.6 - 7.4
25/01:30am 23.3 26.3 23.3 100 0.0 WSW 13 15 7 8 1007.6 - 7.4
25/01:00am 23.4 26.4 23.4 100 0.0 SW 13 17 7 9 1007.8 - 7.4
25/12:30am 23.5 26.2 23.5 100 0.0 SW 15 20 8 11 1008.3 - 7.4
25/12:00am 23.5 26.6 23.5 100 0.0 SSW 13 22 7 12 1008.6 1008.6 7.4
 
Date/Time
CST
Tmp

°C
App
Tmp
°C
Dew
Point
°C
Rel
Hum
%
Delta-T

°C
Wind Press
QNH
hPa
Press
MSL
hPa
Rain
since
9 am
mm
Dir
 
Spd
km/h
Gust
km/h
Spd
kts
Gust
kts
24/11:30pm 23.5 26.6 23.5 100 0.0 SW 13 19 7 10 1008.7 - 7.4
24/11:00pm 23.6 26.4 23.6 100 0.0 SW 15 20 8 11 1008.8 - 7.2
24/10:30pm 23.5 25.4 23.5 100 0.0 SW 19 22 10 12 1008.9 - 7.2
24/10:00pm 23.5 25.4 23.5 100 0.0 WSW 19 24 10 13 1008.9 - 7.2
24/09:30pm 23.5 25.4 23.5 100 0.0 WSW 19 22 10 12 1008.8 - 7.2
24/09:00pm 23.4 25.3 23.4 100 0.0 SW 19 26 10 14 1008.5 1008.5 7.0
24/08:30pm 23.6 25.4 23.6 100 0.0 SW 20 28 11 15 1008.0 - 7.0
24/08:00pm 23.8 26.7 23.8 100 0.0 SW 15 20 8 11 1007.6 - 6.8
24/07:30pm 23.9 25.9 23.9 100 0.0 SSW 20 26 11 14 1007.1 - 6.8
24/07:00pm 23.8 26.3 23.8 100 0.0 SW 17 22 9 12 1006.7 - 6.6
24/06:30pm 24.1 27.5 24.1 100 0.0 SSW 13 28 7 15 1006.0 - 6.6
24/06:00pm 24.2 26.6 24.2 100 0.0 SW 19 24 10 13 1005.7 1005.7 6.4
24/05:30pm 24.1 26.4 24.1 100 0.0 SW 19 26 10 14 1005.6 - 5.8
24/05:00pm 24.3 26.7 24.3 100 0.0 SW 19 24 10 13 1005.4 - 5.2
24/04:30pm 24.4 26.7 24.4 100 0.0 SW 20 26 11 14 1005.0 - 4.6
24/04:00pm 24.4 25.9 24.4 100 0.0 SW 24 32 13 17 1005.0 - 4.4
24/03:30pm 25.2 27.2 24.0 93 0.8 SSW 20 28 11 15 1005.3 - 4.2
24/03:00pm 25.1 26.5 24.8 98 0.2 SSW 26 35 14 19 1005.4 1005.4 4.2

Latest Capital City Observations: Canberra | Sydney | Melbourne | Brisbane | Adelaide | Perth | Hobart | Darwin

Other Formats:

Comma delimited format used in spreadsheet applications
http://www.bom.gov.au/fwo/IDD60901/IDD60901.94127.axf

JavaScript Object Notation format (JSON) in row-major order
http://www.bom.gov.au/fwo/IDD60901/IDD60901.94127.json